sensor_id;sensor_type;location;lat;lon;timestamp;temperature;humidity
8715;DHT22;4394;51.208;8.904;2022-09-09T00:01:07;15.40;99.90
8715;DHT22;4394;51.208;8.904;2022-09-09T00:03:57;15.40;99.90
8715;DHT22;4394;51.208;8.904;2022-09-09T00:06:50;15.40;99.90
8715;DHT22;4394;51.208;8.904;2022-09-09T00:09:43;15.40;99.90
8715;DHT22;4394;51.208;8.904;2022-09-09T00:12:36;15.40;99.90
8715;DHT22;4394;51.208;8.904;2022-09-09T00:15:26;15.40;99.90
8715;DHT22;4394;51.208;8.904;2022-09-09T00:18:18;15.30;99.90
8715;DHT22;4394;51.208;8.904;2022-09-09T00:21:11;15.30;99.90
8715;DHT22;4394;51.208;8.904;2022-09-09T00:24:08;15.40;99.90
8715;DHT22;4394;51.208;8.904;2022-09-09T00:27:00;15.30;99.90
8715;DHT22;4394;51.208;8.904;2022-09-09T00:29:51;15.40;99.90
8715;DHT22;4394;51.208;8.904;2022-09-09T00:32:40;15.40;99.90
8715;DHT22;4394;51.208;8.904;2022-09-09T00:35:29;15.30;99.90
8715;DHT22;4394;51.208;8.904;2022-09-09T00:38:19;15.30;99.90
8715;DHT22;4394;51.208;8.904;2022-09-09T00:41:11;15.30;99.90
8715;DHT22;4394;51.208;8.904;2022-09-09T00:44:07;15.30;99.90
8715;DHT22;4394;51.208;8.904;2022-09-09T00:47:03;15.30;99.90
8715;DHT22;4394;51.208;8.904;2022-09-09T00:49:56;15.30;99.90
8715;DHT22;4394;51.208;8.904;2022-09-09T00:52:50;15.30;99.90
8715;DHT22;4394;51.208;8.904;2022-09-09T00:55:41;15.30;99.90
8715;DHT22;4394;51.208;8.904;2022-09-09T00:58:32;15.30;99.90
8715;DHT22;4394;51.208;8.904;2022-09-09T01:01:22;15.30;99.90
8715;DHT22;4394;51.208;8.904;2022-09-09T01:04:10;15.30;99.90
8715;DHT22;4394;51.208;8.904;2022-09-09T01:07:04;15.30;99.90
8715;DHT22;4394;51.208;8.904;2022-09-09T01:09:55;15.30;99.90
8715;DHT22;4394;51.208;8.904;2022-09-09T01:12:44;15.30;99.90
8715;DHT22;4394;51.208;8.904;2022-09-09T01:15:34;15.20;99.90
8715;DHT22;4394;51.208;8.904;2022-09-09T01:18:26;15.20;99.90
8715;DHT22;4394;51.208;8.904;2022-09-09T01:21:17;15.20;99.90
8715;DHT22;4394;51.208;8.904;2022-09-09T01:24:15;15.10;99.90
8715;DHT22;4394;51.208;8.904;2022-09-09T01:27:08;15.10;99.90
8715;DHT22;4394;51.208;8.904;2022-09-09T01:29:57;15.00;99.90
8715;DHT22;4394;51.208;8.904;2022-09-09T01:32:46;15.00;99.90
8715;DHT22;4394;51.208;8.904;2022-09-09T01:35:37;15.00;99.90
8715;DHT22;4394;51.208;8.904;2022-09-09T01:38:29;15.00;99.90
8715;DHT22;4394;51.208;8.904;2022-09-09T01:41:18;15.00;99.90
8715;DHT22;4394;51.208;8.904;2022-09-09T01:44:07;15.00;99.90
8715;DHT22;4394;51.208;8.904;2022-09-09T01:46:55;15.00;99.90
8715;DHT22;4394;51.208;8.904;2022-09-09T01:49:43;15.00;99.90
8715;DHT22;4394;51.208;8.904;2022-09-09T01:52:31;15.00;99.90
8715;DHT22;4394;51.208;8.904;2022-09-09T01:55:23;15.00;99.90
8715;DHT22;4394;51.208;8.904;2022-09-09T01:58:17;14.90;99.90
8715;DHT22;4394;51.208;8.904;2022-09-09T02:01:10;15.00;99.90
8715;DHT22;4394;51.208;8.904;2022-09-09T02:04:01;15.00;99.90
8715;DHT22;4394;51.208;8.904;2022-09-09T02:06:51;14.90;99.90
8715;DHT22;4394;51.208;8.904;2022-09-09T02:09:41;15.00;99.90
8715;DHT22;4394;51.208;8.904;2022-09-09T02:12:31;15.00;99.90
8715;DHT22;4394;51.208;8.904;2022-09-09T02:15:22;14.90;99.90
8715;DHT22;4394;51.208;8.904;2022-09-09T02:18:13;15.00;99.90
8715;DHT22;4394;51.208;8.904;2022-09-09T02:21:02;15.00;99.90
8715;DHT22;4394;51.208;8.904;2022-09-09T02:23:50;15.00;99.90
8715;DHT22;4394;51.208;8.904;2022-09-09T02:26:40;15.00;99.90
8715;DHT22;4394;51.208;8.904;2022-09-09T02:29:30;15.00;99.90
8715;DHT22;4394;51.208;8.904;2022-09-09T02:32:20;15.00;99.90
8715;DHT22;4394;51.208;8.904;2022-09-09T02:35:11;15.10;99.90
8715;DHT22;4394;51.208;8.904;2022-09-09T02:38:01;15.10;99.90
8715;DHT22;4394;51.208;8.904;2022-09-09T02:40:50;15.10;99.90
8715;DHT22;4394;51.208;8.904;2022-09-09T02:43:39;15.10;99.90
8715;DHT22;4394;51.208;8.904;2022-09-09T02:46:34;15.10;99.90
8715;DHT22;4394;51.208;8.904;2022-09-09T02:49:25;15.10;99.90
8715;DHT22;4394;51.208;8.904;2022-09-09T02:52:17;15.10;99.90
8715;DHT22;4394;51.208;8.904;2022-09-09T02:55:07;15.00;99.90
8715;DHT22;4394;51.208;8.904;2022-09-09T02:57:57;15.00;99.90
8715;DHT22;4394;51.208;8.904;2022-09-09T03:00:47;15.00;99.90
8715;DHT22;4394;51.208;8.904;2022-09-09T03:03:36;15.00;99.90
8715;DHT22;4394;51.208;8.904;2022-09-09T03:06:24;15.00;99.90
8715;DHT22;4394;51.208;8.904;2022-09-09T03:09:15;14.90;99.90
8715;DHT22;4394;51.208;8.904;2022-09-09T03:12:03;14.90;99.90
8715;DHT22;4394;51.208;8.904;2022-09-09T03:14:51;14.90;99.90
8715;DHT22;4394;51.208;8.904;2022-09-09T03:17:39;14.90;99.90
8715;DHT22;4394;51.208;8.904;2022-09-09T03:20:28;15.00;99.90
8715;DHT22;4394;51.208;8.904;2022-09-09T03:23:16;15.00;99.90
8715;DHT22;4394;51.208;8.904;2022-09-09T03:26:06;15.00;99.90
8715;DHT22;4394;51.208;8.904;2022-09-09T03:28:54;15.00;99.90
8715;DHT22;4394;51.208;8.904;2022-09-09T03:31:42;15.00;99.90
8715;DHT22;4394;51.208;8.904;2022-09-09T03:34:30;15.00;99.90
8715;DHT22;4394;51.208;8.904;2022-09-09T03:37:18;15.00;99.90
8715;DHT22;4394;51.208;8.904;2022-09-09T03:40:07;15.00;99.90
8715;DHT22;4394;51.208;8.904;2022-09-09T03:42:57;15.00;99.90
8715;DHT22;4394;51.208;8.904;2022-09-09T03:45:46;15.00;99.90
8715;DHT22;4394;51.208;8.904;2022-09-09T03:48:34;15.00;99.90
8715;DHT22;4394;51.208;8.904;2022-09-09T03:51:22;15.00;99.90
8715;DHT22;4394;51.208;8.904;2022-09-09T03:54:11;15.00;99.90
8715;DHT22;4394;51.208;8.904;2022-09-09T03:56:58;15.00;99.90
8715;DHT22;4394;51.208;8.904;2022-09-09T03:59:48;14.90;99.90
8715;DHT22;4394;51.208;8.904;2022-09-09T04:02:35;15.00;99.90
8715;DHT22;4394;51.208;8.904;2022-09-09T04:05:24;14.90;99.90
8715;DHT22;4394;51.208;8.904;2022-09-09T04:08:11;14.90;99.90
8715;DHT22;4394;51.208;8.904;2022-09-09T04:10:59;14.90;99.90
8715;DHT22;4394;51.208;8.904;2022-09-09T04:13:48;14.90;99.90
8715;DHT22;4394;51.208;8.904;2022-09-09T04:16:37;14.90;99.90
8715;DHT22;4394;51.208;8.904;2022-09-09T04:19:25;14.90;99.90
8715;DHT22;4394;51.208;8.904;2022-09-09T04:22:13;14.90;99.90
8715;DHT22;4394;51.208;8.904;2022-09-09T04:25:01;14.90;99.90
8715;DHT22;4394;51.208;8.904;2022-09-09T04:27:52;14.90;99.90
8715;DHT22;4394;51.208;8.904;2022-09-09T04:30:40;14.90;99.90
8715;DHT22;4394;51.208;8.904;2022-09-09T04:33:29;14.90;99.90
8715;DHT22;4394;51.208;8.904;2022-09-09T04:36:22;15.00;99.90
8715;DHT22;4394;51.208;8.904;2022-09-09T04:39:10;15.00;99.90
8715;DHT22;4394;51.208;8.904;2022-09-09T04:41:58;15.00;99.90
8715;DHT22;4394;51.208;8.904;2022-09-09T04:44:52;15.00;99.90
8715;DHT22;4394;51.208;8.904;2022-09-09T04:47:56;15.00;99.90
8715;DHT22;4394;51.208;8.904;2022-09-09T04:50:46;15.00;99.90
8715;DHT22;4394;51.208;8.904;2022-09-09T04:53:40;15.00;99.90
8715;DHT22;4394;51.208;8.904;2022-09-09T04:56:28;15.00;99.90
8715;DHT22;4394;51.208;8.904;2022-09-09T04:59:16;14.90;99.90
8715;DHT22;4394;51.208;8.904;2022-09-09T05:02:04;14.90;99.90
8715;DHT22;4394;51.208;8.904;2022-09-09T05:04:52;14.90;99.90
8715;DHT22;4394;51.208;8.904;2022-09-09T05:07:41;14.90;99.90
8715;DHT22;4394;51.208;8.904;2022-09-09T05:10:30;14.90;99.90
8715;DHT22;4394;51.208;8.904;2022-09-09T05:13:18;14.90;99.90
8715;DHT22;4394;51.208;8.904;2022-09-09T05:16:05;14.90;99.90
8715;DHT22;4394;51.208;8.904;2022-09-09T05:18:53;14.90;99.90
8715;DHT22;4394;51.208;8.904;2022-09-09T05:21:41;14.90;99.90
8715;DHT22;4394;51.208;8.904;2022-09-09T05:24:31;14.90;99.90
8715;DHT22;4394;51.208;8.904;2022-09-09T05:27:19;15.00;99.90
8715;DHT22;4394;51.208;8.904;2022-09-09T05:30:08;15.00;99.90
8715;DHT22;4394;51.208;8.904;2022-09-09T05:32:56;15.00;99.90
8715;DHT22;4394;51.208;8.904;2022-09-09T05:35:44;15.00;99.90
8715;DHT22;4394;51.208;8.904;2022-09-09T05:38:32;15.00;99.90
8715;DHT22;4394;51.208;8.904;2022-09-09T05:41:21;15.00;99.90
8715;DHT22;4394;51.208;8.904;2022-09-09T05:44:09;15.00;99.90
8715;DHT22;4394;51.208;8.904;2022-09-09T05:46:57;15.00;99.90
8715;DHT22;4394;51.208;8.904;2022-09-09T05:49:45;15.00;99.90
8715;DHT22;4394;51.208;8.904;2022-09-09T05:52:33;15.10;99.90
8715;DHT22;4394;51.208;8.904;2022-09-09T05:55:21;15.10;99.90
8715;DHT22;4394;51.208;8.904;2022-09-09T05:58:10;15.10;99.90
8715;DHT22;4394;51.208;8.904;2022-09-09T06:01:02;15.10;99.90
8715;DHT22;4394;51.208;8.904;2022-09-09T06:03:50;15.20;99.90
8715;DHT22;4394;51.208;8.904;2022-09-09T06:06:39;15.20;99.90
8715;DHT22;4394;51.208;8.904;2022-09-09T06:09:28;15.20;99.90
8715;DHT22;4394;51.208;8.904;2022-09-09T06:12:16;15.30;99.90
8715;DHT22;4394;51.208;8.904;2022-09-09T06:15:06;15.30;99.90
8715;DHT22;4394;51.208;8.904;2022-09-09T06:17:55;15.30;99.90
8715;DHT22;4394;51.208;8.904;2022-09-09T06:20:52;15.30;99.90
8715;DHT22;4394;51.208;8.904;2022-09-09T06:23:40;15.40;99.90
8715;DHT22;4394;51.208;8.904;2022-09-09T06:26:29;15.40;99.90
8715;DHT22;4394;51.208;8.904;2022-09-09T06:29:17;15.40;99.90
8715;DHT22;4394;51.208;8.904;2022-09-09T06:32:07;15.40;99.90
8715;DHT22;4394;51.208;8.904;2022-09-09T06:34:55;15.40;99.90
8715;DHT22;4394;51.208;8.904;2022-09-09T06:37:44;15.40;99.90
8715;DHT22;4394;51.208;8.904;2022-09-09T06:40:32;15.40;99.90
8715;DHT22;4394;51.208;8.904;2022-09-09T06:43:20;15.40;99.90
8715;DHT22;4394;51.208;8.904;2022-09-09T06:46:10;15.50;99.90
8715;DHT22;4394;51.208;8.904;2022-09-09T06:49:00;15.50;99.90
8715;DHT22;4394;51.208;8.904;2022-09-09T06:51:48;15.60;99.90
8715;DHT22;4394;51.208;8.904;2022-09-09T06:54:39;15.70;99.90
8715;DHT22;4394;51.208;8.904;2022-09-09T06:57:28;15.70;99.90
8715;DHT22;4394;51.208;8.904;2022-09-09T07:00:23;15.80;99.90
8715;DHT22;4394;51.208;8.904;2022-09-09T07:03:12;15.80;99.90
8715;DHT22;4394;51.208;8.904;2022-09-09T07:06:01;15.80;99.90
8715;DHT22;4394;51.208;8.904;2022-09-09T07:08:50;15.80;99.90
8715;DHT22;4394;51.208;8.904;2022-09-09T07:11:43;15.90;99.90
8715;DHT22;4394;51.208;8.904;2022-09-09T07:14:31;15.90;99.90
8715;DHT22;4394;51.208;8.904;2022-09-09T07:17:19;16.00;99.90
8715;DHT22;4394;51.208;8.904;2022-09-09T07:20:07;16.20;99.90
8715;DHT22;4394;51.208;8.904;2022-09-09T07:22:56;16.00;99.90
8715;DHT22;4394;51.208;8.904;2022-09-09T07:25:45;16.10;99.90
8715;DHT22;4394;51.208;8.904;2022-09-09T07:28:34;16.10;99.90
8715;DHT22;4394;51.208;8.904;2022-09-09T07:31:23;16.20;99.90
8715;DHT22;4394;51.208;8.904;2022-09-09T07:34:11;16.20;99.90
8715;DHT22;4394;51.208;8.904;2022-09-09T07:36:59;16.30;99.90
8715;DHT22;4394;51.208;8.904;2022-09-09T07:39:48;16.40;99.90
8715;DHT22;4394;51.208;8.904;2022-09-09T07:42:38;16.50;99.90
8715;DHT22;4394;51.208;8.904;2022-09-09T07:45:25;16.50;99.90
8715;DHT22;4394;51.208;8.904;2022-09-09T07:48:14;16.70;99.90
8715;DHT22;4394;51.208;8.904;2022-09-09T07:51:03;16.70;99.90
8715;DHT22;4394;51.208;8.904;2022-09-09T07:53:53;16.70;99.90
8715;DHT22;4394;51.208;8.904;2022-09-09T07:56:42;16.80;99.90
8715;DHT22;4394;51.208;8.904;2022-09-09T07:59:30;16.80;99.90
8715;DHT22;4394;51.208;8.904;2022-09-09T08:02:18;16.80;99.90
8715;DHT22;4394;51.208;8.904;2022-09-09T08:05:06;16.80;99.90
8715;DHT22;4394;51.208;8.904;2022-09-09T08:07:54;16.80;99.90
8715;DHT22;4394;51.208;8.904;2022-09-09T08:10:42;17.00;99.90
8715;DHT22;4394;51.208;8.904;2022-09-09T08:13:31;17.00;99.90
8715;DHT22;4394;51.208;8.904;2022-09-09T08:16:20;17.00;99.90
8715;DHT22;4394;51.208;8.904;2022-09-09T08:19:09;17.10;99.90
8715;DHT22;4394;51.208;8.904;2022-09-09T08:21:57;17.10;99.90
8715;DHT22;4394;51.208;8.904;2022-09-09T08:24:45;17.20;99.90
8715;DHT22;4394;51.208;8.904;2022-09-09T08:27:33;17.20;99.90
8715;DHT22;4394;51.208;8.904;2022-09-09T08:30:23;17.30;99.90
8715;DHT22;4394;51.208;8.904;2022-09-09T08:33:10;17.40;99.90
8715;DHT22;4394;51.208;8.904;2022-09-09T08:35:58;17.50;99.90
8715;DHT22;4394;51.208;8.904;2022-09-09T08:38:47;17.60;99.90
8715;DHT22;4394;51.208;8.904;2022-09-09T08:41:40;17.60;99.90
8715;DHT22;4394;51.208;8.904;2022-09-09T08:44:31;17.70;99.90
8715;DHT22;4394;51.208;8.904;2022-09-09T08:47:27;17.80;99.90
8715;DHT22;4394;51.208;8.904;2022-09-09T08:50:21;17.80;99.90
8715;DHT22;4394;51.208;8.904;2022-09-09T08:53:11;17.90;99.90
8715;DHT22;4394;51.208;8.904;2022-09-09T08:56:04;17.90;99.90
8715;DHT22;4394;51.208;8.904;2022-09-09T08:58:57;17.90;99.90
8715;DHT22;4394;51.208;8.904;2022-09-09T09:01:55;17.90;99.90
8715;DHT22;4394;51.208;8.904;2022-09-09T09:04:50;17.90;99.90
8715;DHT22;4394;51.208;8.904;2022-09-09T09:07:54;18.00;99.90
8715;DHT22;4394;51.208;8.904;2022-09-09T09:10:45;18.10;99.90
8715;DHT22;4394;51.208;8.904;2022-09-09T09:13:35;18.30;99.90
8715;DHT22;4394;51.208;8.904;2022-09-09T09:16:30;18.40;99.90
8715;DHT22;4394;51.208;8.904;2022-09-09T09:19:21;18.50;99.90
8715;DHT22;4394;51.208;8.904;2022-09-09T09:22:16;18.60;99.90
8715;DHT22;4394;51.208;8.904;2022-09-09T09:25:08;18.70;99.90
8715;DHT22;4394;51.208;8.904;2022-09-09T09:28:00;18.80;99.90
8715;DHT22;4394;51.208;8.904;2022-09-09T09:30:52;18.90;99.90
8715;DHT22;4394;51.208;8.904;2022-09-09T09:33:44;19.10;99.90
8715;DHT22;4394;51.208;8.904;2022-09-09T09:36:34;19.30;99.90
8715;DHT22;4394;51.208;8.904;2022-09-09T09:39:24;19.50;99.90
8715;DHT22;4394;51.208;8.904;2022-09-09T09:42:33;19.50;99.90
8715;DHT22;4394;51.208;8.904;2022-09-09T09:45:25;19.40;99.90
8715;DHT22;4394;51.208;8.904;2022-09-09T09:48:15;19.40;99.90
8715;DHT22;4394;51.208;8.904;2022-09-09T09:51:04;19.30;99.90
8715;DHT22;4394;51.208;8.904;2022-09-09T09:53:53;19.20;99.90
8715;DHT22;4394;51.208;8.904;2022-09-09T09:56:44;19.10;99.90
8715;DHT22;4394;51.208;8.904;2022-09-09T09:59:33;19.00;99.90
8715;DHT22;4394;51.208;8.904;2022-09-09T10:02:25;19.00;99.90
8715;DHT22;4394;51.208;8.904;2022-09-09T10:05:14;18.90;99.90
8715;DHT22;4394;51.208;8.904;2022-09-09T10:08:03;18.90;99.90
8715;DHT22;4394;51.208;8.904;2022-09-09T10:10:54;18.70;99.90
8715;DHT22;4394;51.208;8.904;2022-09-09T10:13:47;18.80;99.90
8715;DHT22;4394;51.208;8.904;2022-09-09T10:16:45;18.90;99.90
8715;DHT22;4394;51.208;8.904;2022-09-09T10:19:39;18.80;99.90
8715;DHT22;4394;51.208;8.904;2022-09-09T10:22:31;18.90;99.90
8715;DHT22;4394;51.208;8.904;2022-09-09T10:25:38;18.90;99.90
8715;DHT22;4394;51.208;8.904;2022-09-09T10:28:40;19.00;99.90
8715;DHT22;4394;51.208;8.904;2022-09-09T10:31:32;19.00;99.90
8715;DHT22;4394;51.208;8.904;2022-09-09T10:34:31;19.00;99.90
8715;DHT22;4394;51.208;8.904;2022-09-09T10:37:34;19.20;99.90
8715;DHT22;4394;51.208;8.904;2022-09-09T10:40:26;19.30;99.90
8715;DHT22;4394;51.208;8.904;2022-09-09T10:43:20;19.50;99.90
8715;DHT22;4394;51.208;8.904;2022-09-09T10:46:15;19.60;99.90
8715;DHT22;4394;51.208;8.904;2022-09-09T10:49:12;19.90;99.90
8715;DHT22;4394;51.208;8.904;2022-09-09T10:52:09;20.00;99.90
8715;DHT22;4394;51.208;8.904;2022-09-09T10:55:02;20.10;99.90
8715;DHT22;4394;51.208;8.904;2022-09-09T10:57:56;20.20;99.90
8715;DHT22;4394;51.208;8.904;2022-09-09T11:00:45;20.40;99.90
8715;DHT22;4394;51.208;8.904;2022-09-09T11:03:35;20.60;99.90
8715;DHT22;4394;51.208;8.904;2022-09-09T11:06:29;20.40;99.90
8715;DHT22;4394;51.208;8.904;2022-09-09T11:09:21;20.40;99.90
8715;DHT22;4394;51.208;8.904;2022-09-09T11:12:12;20.40;99.90
8715;DHT22;4394;51.208;8.904;2022-09-09T11:15:02;20.40;99.90
8715;DHT22;4394;51.208;8.904;2022-09-09T11:17:52;20.50;99.90
8715;DHT22;4394;51.208;8.904;2022-09-09T11:20:42;20.60;99.90
8715;DHT22;4394;51.208;8.904;2022-09-09T11:23:33;20.70;99.90
8715;DHT22;4394;51.208;8.904;2022-09-09T11:26:29;20.80;99.90
8715;DHT22;4394;51.208;8.904;2022-09-09T11:29:25;21.00;99.90
8715;DHT22;4394;51.208;8.904;2022-09-09T11:32:27;21.10;99.90
8715;DHT22;4394;51.208;8.904;2022-09-09T11:35:21;21.20;99.90
8715;DHT22;4394;51.208;8.904;2022-09-09T11:38:16;21.30;99.90
8715;DHT22;4394;51.208;8.904;2022-09-09T11:41:07;21.40;99.90
8715;DHT22;4394;51.208;8.904;2022-09-09T11:43:56;21.50;99.90
8715;DHT22;4394;51.208;8.904;2022-09-09T11:46:45;21.60;99.90
8715;DHT22;4394;51.208;8.904;2022-09-09T11:49:40;21.60;99.90
8715;DHT22;4394;51.208;8.904;2022-09-09T11:52:35;21.60;99.90
8715;DHT22;4394;51.208;8.904;2022-09-09T11:55:24;21.60;99.90
8715;DHT22;4394;51.208;8.904;2022-09-09T11:58:16;21.60;99.90
8715;DHT22;4394;51.208;8.904;2022-09-09T12:01:15;21.70;99.90
8715;DHT22;4394;51.208;8.904;2022-09-09T12:04:14;21.80;99.90
8715;DHT22;4394;51.208;8.904;2022-09-09T12:07:21;21.90;99.90
8715;DHT22;4394;51.208;8.904;2022-09-09T12:10:19;21.90;99.90
8715;DHT22;4394;51.208;8.904;2022-09-09T12:13:08;21.90;99.90
8715;DHT22;4394;51.208;8.904;2022-09-09T12:15:58;22.00;99.90
8715;DHT22;4394;51.208;8.904;2022-09-09T12:18:47;22.00;99.90
8715;DHT22;4394;51.208;8.904;2022-09-09T12:21:36;22.00;99.90
8715;DHT22;4394;51.208;8.904;2022-09-09T12:24:28;21.90;99.90
8715;DHT22;4394;51.208;8.904;2022-09-09T12:27:20;21.80;99.90
8715;DHT22;4394;51.208;8.904;2022-09-09T12:30:11;21.70;99.90
8715;DHT22;4394;51.208;8.904;2022-09-09T12:33:06;21.70;99.90
8715;DHT22;4394;51.208;8.904;2022-09-09T12:35:56;21.60;99.90
8715;DHT22;4394;51.208;8.904;2022-09-09T12:38:46;21.50;99.90
8715;DHT22;4394;51.208;8.904;2022-09-09T12:41:34;21.50;99.90
8715;DHT22;4394;51.208;8.904;2022-09-09T12:44:22;21.40;99.90
8715;DHT22;4394;51.208;8.904;2022-09-09T12:47:10;21.40;99.90
8715;DHT22;4394;51.208;8.904;2022-09-09T12:50:01;21.20;99.90
8715;DHT22;4394;51.208;8.904;2022-09-09T12:52:49;20.90;99.90
8715;DHT22;4394;51.208;8.904;2022-09-09T12:55:38;20.80;99.90
8715;DHT22;4394;51.208;8.904;2022-09-09T12:58:26;20.70;99.90
8715;DHT22;4394;51.208;8.904;2022-09-09T13:01:20;20.60;99.90
8715;DHT22;4394;51.208;8.904;2022-09-09T13:04:16;20.60;99.90
8715;DHT22;4394;51.208;8.904;2022-09-09T13:07:08;20.70;99.90
8715;DHT22;4394;51.208;8.904;2022-09-09T13:09:59;20.80;99.90
8715;DHT22;4394;51.208;8.904;2022-09-09T13:12:46;20.90;99.90
8715;DHT22;4394;51.208;8.904;2022-09-09T13:15:34;20.90;99.90
8715;DHT22;4394;51.208;8.904;2022-09-09T13:18:23;20.90;99.90
8715;DHT22;4394;51.208;8.904;2022-09-09T13:21:11;20.80;99.90
8715;DHT22;4394;51.208;8.904;2022-09-09T13:24:01;20.80;99.90
8715;DHT22;4394;51.208;8.904;2022-09-09T13:26:53;20.90;99.90
8715;DHT22;4394;51.208;8.904;2022-09-09T13:29:50;21.00;99.90
8715;DHT22;4394;51.208;8.904;2022-09-09T13:32:38;21.00;99.90
8715;DHT22;4394;51.208;8.904;2022-09-09T13:35:26;21.00;99.90
8715;DHT22;4394;51.208;8.904;2022-09-09T13:38:14;20.90;99.90
8715;DHT22;4394;51.208;8.904;2022-09-09T13:41:04;20.90;99.90
8715;DHT22;4394;51.208;8.904;2022-09-09T13:43:53;21.00;99.90
8715;DHT22;4394;51.208;8.904;2022-09-09T13:46:41;21.10;99.90
8715;DHT22;4394;51.208;8.904;2022-09-09T13:49:30;21.10;99.90
8715;DHT22;4394;51.208;8.904;2022-09-09T13:52:20;21.10;99.90
8715;DHT22;4394;51.208;8.904;2022-09-09T13:55:08;21.00;99.90
8715;DHT22;4394;51.208;8.904;2022-09-09T13:57:58;21.00;99.90
8715;DHT22;4394;51.208;8.904;2022-09-09T14:00:47;21.20;99.90
8715;DHT22;4394;51.208;8.904;2022-09-09T14:03:36;21.30;99.90
8715;DHT22;4394;51.208;8.904;2022-09-09T14:06:24;21.40;99.90
8715;DHT22;4394;51.208;8.904;2022-09-09T14:09:12;21.50;99.90
8715;DHT22;4394;51.208;8.904;2022-09-09T14:12:02;21.40;99.90
8715;DHT22;4394;51.208;8.904;2022-09-09T14:14:52;21.40;99.90
8715;DHT22;4394;51.208;8.904;2022-09-09T14:17:40;21.30;99.90
8715;DHT22;4394;51.208;8.904;2022-09-09T14:20:28;21.20;99.90
8715;DHT22;4394;51.208;8.904;2022-09-09T14:23:16;21.20;99.90
8715;DHT22;4394;51.208;8.904;2022-09-09T14:26:05;21.30;99.90
8715;DHT22;4394;51.208;8.904;2022-09-09T14:28:53;21.50;99.90
8715;DHT22;4394;51.208;8.904;2022-09-09T14:31:43;21.80;99.90
8715;DHT22;4394;51.208;8.904;2022-09-09T14:34:31;21.90;99.90
8715;DHT22;4394;51.208;8.904;2022-09-09T14:37:19;22.10;99.90
8715;DHT22;4394;51.208;8.904;2022-09-09T14:40:08;22.10;99.90
8715;DHT22;4394;51.208;8.904;2022-09-09T14:42:56;22.00;99.90
8715;DHT22;4394;51.208;8.904;2022-09-09T14:45:44;22.00;99.90
8715;DHT22;4394;51.208;8.904;2022-09-09T14:48:36;22.10;99.90
8715;DHT22;4394;51.208;8.904;2022-09-09T14:51:25;22.30;99.90
8715;DHT22;4394;51.208;8.904;2022-09-09T14:54:14;22.50;99.90
8715;DHT22;4394;51.208;8.904;2022-09-09T14:57:02;22.60;99.90
8715;DHT22;4394;51.208;8.904;2022-09-09T14:59:50;22.80;99.90
8715;DHT22;4394;51.208;8.904;2022-09-09T15:02:38;22.80;99.90
8715;DHT22;4394;51.208;8.904;2022-09-09T15:05:28;22.70;99.90
8715;DHT22;4394;51.208;8.904;2022-09-09T15:08:17;22.70;99.90
8715;DHT22;4394;51.208;8.904;2022-09-09T15:11:05;22.80;99.90
8715;DHT22;4394;51.208;8.904;2022-09-09T15:13:53;22.80;99.90
8715;DHT22;4394;51.208;8.904;2022-09-09T15:16:41;22.70;99.90
8715;DHT22;4394;51.208;8.904;2022-09-09T15:19:29;22.50;99.90
8715;DHT22;4394;51.208;8.904;2022-09-09T15:22:20;22.40;99.90
8715;DHT22;4394;51.208;8.904;2022-09-09T15:25:08;22.30;99.90
8715;DHT22;4394;51.208;8.904;2022-09-09T15:27:55;22.10;99.90
8715;DHT22;4394;51.208;8.904;2022-09-09T15:30:43;22.00;99.90
8715;DHT22;4394;51.208;8.904;2022-09-09T15:33:31;21.90;99.90
8715;DHT22;4394;51.208;8.904;2022-09-09T15:36:20;21.80;99.90
8715;DHT22;4394;51.208;8.904;2022-09-09T15:39:11;21.70;99.90
8715;DHT22;4394;51.208;8.904;2022-09-09T15:41:59;21.70;99.90
8715;DHT22;4394;51.208;8.904;2022-09-09T15:44:48;21.70;99.90
8715;DHT22;4394;51.208;8.904;2022-09-09T15:47:36;21.80;99.90
8715;DHT22;4394;51.208;8.904;2022-09-09T15:50:24;22.00;99.90
8715;DHT22;4394;51.208;8.904;2022-09-09T15:53:12;22.00;99.90
8715;DHT22;4394;51.208;8.904;2022-09-09T15:56:02;22.00;99.90
8715;DHT22;4394;51.208;8.904;2022-09-09T15:58:49;22.00;99.90
8715;DHT22;4394;51.208;8.904;2022-09-09T16:01:38;22.00;99.90
8715;DHT22;4394;51.208;8.904;2022-09-09T16:04:27;22.10;99.90
8715;DHT22;4394;51.208;8.904;2022-09-09T16:07:16;22.10;99.90
8715;DHT22;4394;51.208;8.904;2022-09-09T16:10:04;22.10;99.90
8715;DHT22;4394;51.208;8.904;2022-09-09T16:12:53;22.10;99.90
8715;DHT22;4394;51.208;8.904;2022-09-09T16:15:42;22.10;99.90
8715;DHT22;4394;51.208;8.904;2022-09-09T16:18:33;22.00;99.90
8715;DHT22;4394;51.208;8.904;2022-09-09T16:21:23;21.80;99.90
8715;DHT22;4394;51.208;8.904;2022-09-09T16:24:11;21.60;99.90
8715;DHT22;4394;51.208;8.904;2022-09-09T16:27:00;21.40;99.90
8715;DHT22;4394;51.208;8.904;2022-09-09T16:29:49;21.30;99.90
8715;DHT22;4394;51.208;8.904;2022-09-09T16:32:37;21.20;99.90
8715;DHT22;4394;51.208;8.904;2022-09-09T16:35:25;21.10;99.90
8715;DHT22;4394;51.208;8.904;2022-09-09T16:38:13;21.00;99.90
8715;DHT22;4394;51.208;8.904;2022-09-09T16:41:02;21.00;99.90
8715;DHT22;4394;51.208;8.904;2022-09-09T16:43:52;20.90;99.90
8715;DHT22;4394;51.208;8.904;2022-09-09T16:46:42;20.80;99.90
8715;DHT22;4394;51.208;8.904;2022-09-09T16:49:30;20.50;99.90
8715;DHT22;4394;51.208;8.904;2022-09-09T16:52:18;20.10;99.90
8715;DHT22;4394;51.208;8.904;2022-09-09T16:55:06;19.80;99.90
8715;DHT22;4394;51.208;8.904;2022-09-09T16:57:55;19.50;99.90
8715;DHT22;4394;51.208;8.904;2022-09-09T17:00:43;19.30;99.90
8715;DHT22;4394;51.208;8.904;2022-09-09T17:03:34;19.00;99.90
8715;DHT22;4394;51.208;8.904;2022-09-09T17:06:24;18.70;99.90
8715;DHT22;4394;51.208;8.904;2022-09-09T17:09:11;18.50;99.90
8715;DHT22;4394;51.208;8.904;2022-09-09T17:12:00;18.40;99.90
8715;DHT22;4394;51.208;8.904;2022-09-09T17:14:48;18.40;99.90
8715;DHT22;4394;51.208;8.904;2022-09-09T17:17:37;18.30;99.90
8715;DHT22;4394;51.208;8.904;2022-09-09T17:20:26;18.20;99.90
8715;DHT22;4394;51.208;8.904;2022-09-09T17:23:31;18.20;99.90
8715;DHT22;4394;51.208;8.904;2022-09-09T17:26:20;18.20;99.90
8715;DHT22;4394;51.208;8.904;2022-09-09T17:29:08;18.10;99.90
8715;DHT22;4394;51.208;8.904;2022-09-09T17:31:57;18.10;99.90
8715;DHT22;4394;51.208;8.904;2022-09-09T17:34:45;18.10;99.90
8715;DHT22;4394;51.208;8.904;2022-09-09T17:37:34;18.00;99.90
8715;DHT22;4394;51.208;8.904;2022-09-09T17:40:22;18.00;99.90
8715;DHT22;4394;51.208;8.904;2022-09-09T17:43:10;17.90;99.90
8715;DHT22;4394;51.208;8.904;2022-09-09T17:46:05;17.80;99.90
8715;DHT22;4394;51.208;8.904;2022-09-09T17:48:55;17.70;99.90
8715;DHT22;4394;51.208;8.904;2022-09-09T17:51:43;17.60;99.90
8715;DHT22;4394;51.208;8.904;2022-09-09T17:54:33;17.60;99.90
8715;DHT22;4394;51.208;8.904;2022-09-09T17:57:21;17.50;99.90
8715;DHT22;4394;51.208;8.904;2022-09-09T18:00:09;17.50;99.90
8715;DHT22;4394;51.208;8.904;2022-09-09T18:02:57;17.50;99.90
8715;DHT22;4394;51.208;8.904;2022-09-09T18:05:45;17.40;99.90
8715;DHT22;4394;51.208;8.904;2022-09-09T18:08:34;17.40;99.90
8715;DHT22;4394;51.208;8.904;2022-09-09T18:11:25;17.40;99.90
8715;DHT22;4394;51.208;8.904;2022-09-09T18:14:15;17.30;99.90
8715;DHT22;4394;51.208;8.904;2022-09-09T18:17:03;17.20;99.90
8715;DHT22;4394;51.208;8.904;2022-09-09T18:19:51;17.20;99.90
8715;DHT22;4394;51.208;8.904;2022-09-09T18:22:40;17.10;99.90
8715;DHT22;4394;51.208;8.904;2022-09-09T18:25:28;17.10;99.90
8715;DHT22;4394;51.208;8.904;2022-09-09T18:28:17;17.10;99.90
8715;DHT22;4394;51.208;8.904;2022-09-09T18:31:11;17.00;99.90